createdAt,value
2018-12-04T00:00:51.187Z,2.84
2018-12-04T00:03:24.012Z,2.79
2018-12-04T00:05:54.930Z,2.77
2018-12-04T00:08:27.625Z,2.89
2018-12-04T00:11:00.462Z,2.83
2018-12-04T00:13:37.209Z,2.73
2018-12-04T00:16:07.927Z,2.76
2018-12-04T00:18:40.870Z,2.54
2018-12-04T00:21:13.746Z,2.55
2018-12-04T00:23:46.570Z,2.48
2018-12-04T00:28:47.822Z,2.49
2018-12-04T00:31:20.772Z,2.52
2018-12-04T00:33:57.517Z,2.54
2018-12-04T00:36:30.307Z,2.62
2018-12-04T00:39:04.372Z,2.63
2018-12-04T00:41:36.948Z,2.65
2018-12-04T00:44:09.792Z,2.66
2018-12-04T00:46:42.736Z,2.62
2018-12-04T00:49:18.987Z,2.64
2018-12-04T00:51:51.129Z,2.77
2018-12-04T00:54:23.352Z,2.98
2018-12-04T00:56:53.469Z,2.97
2018-12-04T00:59:26.318Z,3.03
2018-12-04T01:01:58.635Z,3.04
2018-12-04T01:04:31.440Z,2.98
2018-12-04T01:07:08.276Z,3.05
2018-12-04T01:09:41.307Z,3.02
2018-12-04T01:12:18.344Z,3.20
2018-12-04T01:14:51.294Z,3.29
2018-12-04T01:17:24.244Z,3.34
2018-12-04T01:19:57.099Z,3.28
2018-12-04T01:22:28.164Z,3.30
2018-12-04T01:25:01.033Z,3.47
2018-12-04T01:45:14.005Z,4.43
2018-12-04T01:47:46.345Z,4.40
2018-12-04T01:50:19.354Z,4.43
2018-12-04T01:52:55.452Z,4.46
2018-12-04T01:55:28.436Z,4.59
2018-12-04T01:58:04.714Z,4.66
2018-12-04T02:00:37.761Z,4.72
2018-12-04T02:03:11.336Z,4.76
2018-12-04T02:05:47.598Z,4.83
2018-12-04T02:08:18.391Z,5.02
2018-12-04T02:10:50.401Z,5.12
2018-12-04T02:13:28.253Z,5.07
2018-12-04T02:16:01.104Z,5.04
2018-12-04T02:18:33.912Z,4.95
2018-12-04T02:21:10.878Z,5.03
2018-12-04T02:23:47.940Z,5.02
2018-12-04T02:26:24.728Z,4.94
2018-12-04T02:28:57.600Z,4.94
2018-12-04T02:31:29.694Z,4.88
2018-12-04T02:34:06.633Z,4.99
2018-12-04T02:36:39.394Z,4.90
2018-12-04T02:39:12.120Z,4.93
2018-12-04T02:41:44.951Z,4.84
2018-12-04T02:49:19.907Z,4.65
2018-12-04T02:51:52.876Z,4.62
2018-12-04T02:54:25.010Z,4.58
2018-12-04T02:56:57.023Z,4.58
2018-12-04T02:59:33.190Z,4.68
2018-12-04T03:02:09.986Z,4.69
2018-12-04T03:04:46.962Z,4.84
2018-12-04T03:07:19.856Z,4.87
2018-12-04T03:09:52.996Z,4.63
2018-12-04T03:12:29.819Z,4.84
2018-12-04T03:15:02.344Z,4.68
2018-12-04T03:17:35.212Z,4.56
2018-12-04T03:20:07.424Z,4.53
2018-12-04T03:22:40.430Z,4.51
2018-12-04T03:25:12.449Z,4.30
2018-12-04T03:27:49.114Z,4.17
2018-12-04T03:30:23.111Z,4.08
2018-12-04T03:32:55.127Z,4.12
2018-12-04T03:35:28.007Z,4.18
2018-12-04T03:38:00.888Z,4.09
2018-12-04T03:40:38.066Z,4.17
2018-12-04T03:43:15.323Z,4.07
2018-12-04T03:45:52.277Z,4.02
2018-12-04T03:48:29.101Z,4.19
2018-12-04T03:53:33.336Z,4.22
2018-12-04T03:56:06.525Z,4.15
2018-12-04T03:58:39.076Z,4.05
2018-12-04T04:01:11.867Z,4.03
2018-12-04T04:03:43.872Z,4.03
2018-12-04T04:06:19.957Z,3.89
2018-12-04T04:08:52.762Z,3.78
2018-12-04T04:11:25.716Z,3.82
2018-12-04T04:13:56.540Z,3.71
2018-12-04T04:16:29.497Z,3.63
2018-12-04T04:19:06.318Z,3.76
2018-12-04T04:21:39.673Z,3.79
2018-12-04T04:24:12.238Z,3.92
2018-12-04T04:26:49.324Z,4.04
2018-12-04T04:29:25.590Z,4.18
2018-12-04T04:31:58.702Z,4.29
2018-12-04T04:34:34.768Z,4.08
2018-12-04T04:37:07.949Z,4.02
2018-12-04T04:39:40.645Z,3.98
2018-12-04T04:42:13.565Z,3.88
2018-12-04T04:44:44.492Z,3.79
2018-12-04T04:47:17.289Z,3.82
2018-12-04T04:49:48.021Z,3.96
2018-12-04T04:52:23.035Z,3.86
2018-12-04T04:55:29.545Z,3.84
2018-12-04T04:58:01.588Z,3.81
2018-12-04T05:00:37.671Z,3.73
2018-12-04T05:03:10.585Z,3.78
2018-12-04T05:05:43.352Z,3.73
2018-12-04T05:08:21.188Z,3.70
2018-12-04T05:10:58.033Z,3.57
2018-12-04T05:13:30.269Z,3.69
2018-12-04T05:16:02.444Z,3.72
2018-12-04T05:18:34.501Z,3.56
2018-12-04T05:21:07.426Z,3.46
2018-12-04T05:23:38.383Z,3.35
2018-12-04T05:26:10.650Z,3.18
2018-12-04T05:28:47.885Z,3.15
2018-12-04T05:31:19.990Z,3.03
2018-12-04T05:33:56.608Z,3.00
2018-12-04T05:36:29.545Z,2.85
2018-12-04T05:39:07.644Z,2.67
2018-12-04T05:41:40.702Z,3.04
2018-12-04T05:44:16.771Z,3.15
2018-12-04T05:46:49.589Z,2.89
2018-12-04T05:49:25.690Z,2.86
2018-12-04T05:51:58.234Z,2.81
2018-12-04T05:54:34.701Z,2.71
2018-12-04T05:57:11.747Z,2.77
2018-12-04T05:59:44.625Z,2.76
2018-12-04T06:02:21.867Z,2.80
2018-12-04T06:04:54.115Z,2.65
2018-12-04T06:07:31.045Z,2.46
2018-12-04T06:10:03.289Z,2.56
2018-12-04T06:12:39.335Z,2.89
2018-12-04T06:15:11.400Z,2.77
2018-12-04T06:17:47.618Z,2.79
2018-12-04T06:20:20.129Z,3.04
2018-12-04T06:22:52.560Z,2.87
2018-12-04T06:25:29.558Z,2.91
2018-12-04T06:28:02.431Z,2.73
2018-12-04T06:30:35.346Z,2.60
2018-12-04T06:33:12.116Z,2.59
2018-12-04T06:35:48.151Z,2.52
2018-12-04T06:38:19.988Z,2.32
2018-12-04T06:40:52.922Z,2.46
2018-12-04T06:43:25.254Z,2.23
2018-12-04T06:45:58.096Z,2.28
2018-12-04T06:48:31.027Z,2.26
2018-12-04T06:51:07.134Z,2.20
2018-12-04T06:53:43.149Z,2.25
2018-12-04T06:58:49.857Z,2.35
2018-12-04T07:01:22.904Z,2.60
2018-12-04T07:03:54.910Z,2.58
2018-12-04T07:06:27.859Z,2.62
2018-12-04T07:08:59.979Z,2.74
2018-12-04T07:11:32.867Z,2.93
2018-12-04T07:14:09.690Z,3.22
2018-12-04T07:16:41.704Z,3.64
2018-12-04T07:19:17.807Z,4.07
2018-12-04T07:21:56.237Z,4.38
2018-12-04T07:24:26.464Z,4.49
2018-12-04T07:27:03.364Z,4.51
2018-12-04T07:29:36.831Z,5.04
2018-12-04T07:32:13.599Z,5.03
2018-12-04T07:34:46.318Z,5.56
2018-12-04T07:37:19.174Z,5.85
2018-12-04T07:39:56.167Z,6.33
2018-12-04T07:42:28.821Z,6.33
2018-12-04T07:45:01.756Z,6.65
2018-12-04T07:47:34.715Z,6.51
2018-12-04T07:50:10.736Z,7.16
2018-12-04T07:52:42.864Z,7.26
2018-12-04T07:55:15.694Z,7.04
2018-12-04T07:57:45.812Z,6.59
2018-12-04T08:00:18.715Z,6.42
2018-12-04T08:02:54.850Z,6.70
2018-12-04T08:05:26.983Z,6.65
2018-12-04T08:08:03.022Z,6.54
2018-12-04T08:10:35.973Z,6.56
2018-12-04T08:13:12.053Z,6.61
2018-12-04T08:15:44.945Z,6.87
2018-12-04T08:18:22.086Z,6.73
2018-12-04T08:20:52.627Z,6.98
2018-12-04T08:23:29.504Z,7.31
2018-12-04T08:26:02.469Z,7.73
2018-12-04T08:28:39.285Z,7.62
2018-12-04T08:31:11.459Z,7.50
2018-12-04T08:33:44.428Z,7.75
2018-12-04T08:36:16.643Z,8.49
2018-12-04T08:38:48.651Z,9.00
2018-12-04T08:41:20.915Z,9.46
2018-12-04T08:43:51.813Z,9.26
2018-12-04T08:46:22.017Z,9.55
2018-12-04T08:48:54.017Z,10.05
2018-12-04T08:51:27.087Z,10.05
2018-12-04T08:54:04.024Z,9.98
2018-12-04T08:56:36.235Z,9.85
2018-12-04T08:59:12.360Z,9.60
2018-12-04T09:01:44.415Z,9.88
2018-12-04T09:04:20.500Z,10.03
2018-12-04T09:06:50.657Z,10.44
2018-12-04T09:09:23.524Z,10.67
2018-12-04T09:11:54.454Z,10.58
2018-12-04T09:14:25.477Z,10.60
2018-12-04T09:16:56.222Z,10.88
2018-12-04T09:19:27.036Z,10.96
2018-12-04T09:21:57.798Z,10.89
2018-12-04T09:24:31.054Z,11.01
2018-12-04T09:27:07.644Z,11.41
2018-12-04T09:29:40.584Z,11.92
2018-12-04T09:32:13.536Z,11.99
2018-12-04T09:34:46.504Z,12.62
2018-12-04T09:37:19.377Z,13.41
2018-12-04T09:39:56.170Z,13.75
2018-12-04T09:42:27.219Z,13.62
2018-12-04T09:44:59.843Z,12.69
2018-12-04T09:47:30.123Z,12.41
2018-12-04T09:50:03.213Z,12.51
2018-12-04T09:52:36.039Z,12.88
2018-12-04T09:55:08.941Z,13.29
2018-12-04T09:57:41.776Z,13.33
2018-12-04T10:00:15.052Z,13.71
2018-12-04T10:02:45.852Z,14.20
2018-12-04T10:05:18.677Z,14.76
2018-12-04T10:07:54.848Z,14.49
2018-12-04T10:10:25.723Z,14.03
2018-12-04T10:12:58.660Z,14.11
2018-12-04T10:15:29.436Z,14.29
2018-12-04T10:18:06.164Z,14.68
2018-12-04T10:20:39.096Z,15.07
2018-12-04T10:23:16.105Z,15.20
2018-12-04T10:25:50.634Z,15.35
2018-12-04T10:28:22.803Z,15.28
2018-12-04T10:30:58.894Z,16.11
2018-12-04T10:33:35.418Z,16.44
2018-12-04T10:36:06.057Z,16.47
2018-12-04T10:38:38.597Z,16.43
2018-12-04T10:41:15.339Z,16.78
2018-12-04T10:43:46.300Z,17.04
2018-12-04T10:46:19.103Z,17.27
2018-12-04T10:48:51.825Z,17.38
2018-12-04T10:51:24.853Z,17.04
2018-12-04T10:53:57.680Z,17.07
2018-12-04T10:56:30.887Z,17.17
2018-12-04T10:59:03.509Z,17.06
2018-12-04T11:01:41.396Z,16.83
2018-12-04T11:04:12.991Z,16.63
2018-12-04T11:06:46.236Z,16.91
2018-12-04T11:09:18.933Z,17.57
2018-12-04T11:11:51.872Z,17.31
2018-12-04T11:14:28.620Z,17.76
2018-12-04T11:17:01.606Z,17.68
2018-12-04T11:19:34.521Z,17.39
2018-12-04T11:22:10.577Z,17.05
2018-12-04T11:24:43.376Z,17.59
2018-12-04T11:27:19.553Z,18.25
2018-12-04T11:29:52.208Z,17.66
2018-12-04T11:32:24.174Z,17.84
2018-12-04T11:34:57.097Z,18.15
2018-12-04T11:37:29.751Z,18.43
2018-12-04T11:40:02.300Z,17.95
2018-12-04T11:42:35.123Z,18.50
2018-12-04T11:45:06.183Z,18.73
2018-12-04T11:47:36.532Z,18.52
2018-12-04T11:50:07.721Z,17.85
2018-12-04T11:52:38.118Z,18.59
2018-12-04T11:55:11.465Z,18.59
2018-12-04T11:57:43.636Z,18.54
2018-12-04T12:00:21.217Z,18.78
2018-12-04T12:02:53.569Z,18.88
2018-12-04T12:05:29.390Z,17.92
2018-12-04T12:10:42.652Z,18.67
2018-12-04T12:13:15.425Z,17.96
2018-12-04T12:15:45.703Z,18.70
2018-12-04T12:18:16.591Z,18.43
2018-12-04T12:20:49.674Z,18.84
2018-12-04T12:23:22.464Z,18.97
2018-12-04T12:25:53.253Z,18.87
2018-12-04T12:28:24.008Z,19.07
2018-12-04T12:30:58.863Z,19.11
2018-12-04T12:33:35.088Z,19.05
2018-12-04T12:36:08.074Z,18.88
2018-12-04T12:38:39.963Z,18.67
2018-12-04T12:41:12.128Z,18.65
2018-12-04T12:43:42.781Z,18.01
2018-12-04T12:46:15.511Z,17.34
2018-12-04T12:48:48.308Z,16.91
2018-12-04T12:51:19.027Z,16.71
2018-12-04T12:53:51.148Z,17.16
2018-12-04T12:56:29.073Z,16.95
2018-12-04T12:59:02.029Z,17.26
2018-12-04T13:01:34.963Z,17.03
2018-12-04T13:04:07.542Z,17.08
2018-12-04T13:06:39.582Z,17.42
2018-12-04T13:09:16.385Z,16.99
2018-12-04T13:11:49.272Z,16.65
2018-12-04T13:14:22.181Z,16.86
2018-12-04T13:16:59.204Z,17.22
2018-12-04T13:19:35.249Z,16.77
2018-12-04T13:22:07.728Z,16.51
2018-12-04T13:24:41.609Z,15.80
2018-12-04T13:27:13.852Z,15.49
2018-12-04T13:29:45.884Z,15.35
2018-12-04T13:32:22.060Z,15.51
2018-12-04T13:34:55.161Z,15.56
2018-12-04T13:37:27.237Z,15.55
2018-12-04T13:40:00.040Z,15.14
2018-12-04T13:42:32.808Z,15.13
2018-12-04T13:45:06.429Z,14.95
2018-12-04T13:47:37.334Z,14.95
2018-12-04T13:50:07.985Z,14.72
2018-12-04T13:52:38.766Z,14.36
2018-12-04T13:55:11.622Z,14.32
2018-12-04T13:57:50.756Z,14.29
2018-12-04T14:00:23.383Z,14.13
2018-12-04T14:02:54.237Z,14.00
2018-12-04T14:05:27.038Z,14.18
2018-12-04T14:07:59.700Z,14.26
2018-12-04T14:10:32.711Z,14.49
2018-12-04T14:13:05.703Z,14.51
2018-12-04T14:18:22.178Z,14.78
2018-12-04T14:20:54.932Z,14.83
2018-12-04T14:23:25.673Z,14.77
2018-12-04T14:26:02.743Z,14.59
2018-12-04T14:28:38.908Z,14.61
2018-12-04T14:31:11.799Z,14.58
2018-12-04T14:33:44.892Z,14.55
2018-12-04T14:36:15.905Z,14.13
2018-12-04T14:38:55.837Z,14.25
2018-12-04T14:41:27.941Z,13.92
2018-12-04T14:44:04.093Z,13.82
2018-12-04T14:46:36.177Z,13.70
2018-12-04T14:49:06.372Z,13.66
2018-12-04T14:51:39.269Z,13.53
2018-12-04T14:54:16.087Z,13.33
2018-12-04T14:56:46.828Z,13.20
2018-12-04T14:59:17.860Z,13.15
2018-12-04T15:01:54.455Z,13.06
2018-12-04T15:04:27.110Z,12.82
2018-12-04T15:07:03.843Z,12.91
2018-12-04T15:09:40.431Z,12.95
2018-12-04T15:12:11.323Z,12.86
2018-12-04T15:14:41.898Z,12.81
2018-12-04T15:17:14.570Z,12.67
2018-12-04T15:19:47.556Z,12.71
2018-12-04T15:22:24.302Z,12.67
2018-12-04T15:24:57.205Z,12.54
2018-12-04T15:27:30.686Z,12.48
2018-12-04T15:30:04.230Z,12.32
2018-12-04T15:32:37.914Z,12.32
2018-12-04T15:35:14.252Z,12.26
2018-12-04T15:37:47.040Z,12.22
2018-12-04T15:40:20.222Z,12.10
2018-12-04T15:42:52.632Z,12.01
2018-12-04T15:45:25.654Z,11.93
2018-12-04T15:47:58.667Z,11.87
2018-12-04T15:50:35.483Z,11.83
2018-12-04T15:53:08.187Z,11.82
2018-12-04T15:55:41.206Z,11.78
2018-12-04T15:58:14.068Z,11.70
2018-12-04T16:00:50.208Z,11.56
2018-12-04T16:03:26.439Z,11.58
2018-12-04T16:06:03.824Z,11.26
2018-12-04T16:08:35.863Z,11.21
2018-12-04T16:11:08.633Z,11.06
2018-12-04T16:13:39.155Z,10.73
2018-12-04T16:16:11.864Z,10.68
2018-12-04T16:18:48.438Z,10.59
2018-12-04T16:21:25.676Z,10.53
2018-12-04T16:23:58.566Z,10.56
2018-12-04T16:26:31.512Z,10.48
2018-12-04T16:29:07.824Z,10.44
2018-12-04T16:31:40.768Z,10.60
2018-12-04T16:34:12.016Z,10.60
2018-12-04T16:36:44.473Z,10.33
2018-12-04T16:39:15.208Z,10.06
2018-12-04T16:41:47.370Z,10.08
2018-12-04T16:44:18.047Z,10.19
2018-12-04T16:46:51.021Z,10.05
2018-12-04T16:49:24.019Z,9.96
2018-12-04T16:52:01.061Z,9.90
2018-12-04T16:54:34.240Z,9.76
2018-12-04T16:57:10.894Z,9.76
2018-12-04T16:59:42.014Z,9.66
2018-12-04T17:02:15.040Z,9.71
2018-12-04T17:04:47.838Z,9.67
2018-12-04T17:07:18.931Z,9.49
2018-12-04T17:09:52.080Z,9.53
2018-12-04T17:12:24.212Z,9.38
2018-12-04T17:15:00.420Z,9.33
2018-12-04T17:17:37.246Z,9.22
2018-12-04T17:20:13.437Z,9.29
2018-12-04T17:22:46.892Z,9.20
2018-12-04T17:25:19.433Z,9.10
2018-12-04T17:27:52.383Z,9.02
2018-12-04T17:30:25.685Z,8.86
2018-12-04T17:32:58.709Z,8.90
2018-12-04T17:35:31.150Z,8.86
2018-12-04T17:38:04.184Z,8.77
2018-12-04T17:40:36.917Z,8.61
2018-12-04T17:43:09.966Z,8.39
2018-12-04T17:45:40.855Z,8.16
2018-12-04T17:48:13.891Z,7.99
2018-12-04T17:50:46.701Z,7.93
2018-12-04T17:53:22.818Z,7.78
2018-12-04T17:56:00.907Z,7.75
2018-12-04T17:58:31.599Z,7.71
2018-12-04T18:01:03.939Z,7.60
2018-12-04T18:03:35.734Z,7.51
2018-12-04T18:06:08.674Z,7.39
2018-12-04T18:08:40.746Z,7.23
2018-12-04T18:11:19.242Z,7.12
2018-12-04T18:13:52.118Z,7.10
2018-12-04T18:16:24.811Z,7.05
2018-12-04T18:18:57.783Z,7.11
2018-12-04T18:21:30.707Z,7.19
2018-12-04T18:24:07.752Z,7.20
2018-12-04T18:26:43.837Z,7.17
2018-12-04T18:29:16.913Z,7.16
2018-12-04T18:31:49.856Z,7.14
2018-12-04T18:34:22.688Z,7.01
2018-12-04T18:37:00.708Z,7.08
2018-12-04T18:39:33.528Z,7.04
2018-12-04T18:42:06.492Z,7.02
2018-12-04T18:44:40.179Z,6.87
2018-12-04T18:47:13.575Z,6.87
2018-12-04T18:49:50.305Z,6.91
2018-12-04T18:52:24.266Z,6.88
2018-12-04T18:55:02.236Z,6.91
2018-12-04T18:57:34.370Z,6.88
2018-12-04T19:00:08.246Z,6.86
2018-12-04T19:02:41.089Z,6.72
2018-12-04T19:05:17.166Z,6.52
2018-12-04T19:07:48.403Z,6.43
2018-12-04T19:10:25.160Z,6.51
2018-12-04T19:13:02.786Z,6.49
2018-12-04T19:15:36.339Z,6.40
2018-12-04T19:18:09.282Z,6.46
2018-12-04T19:20:46.374Z,6.39
2018-12-04T19:23:19.219Z,6.47
2018-12-04T19:25:57.282Z,6.50
2018-12-04T19:31:02.873Z,6.56
2018-12-04T19:36:11.382Z,6.51
2018-12-04T19:38:48.391Z,6.48
2018-12-04T19:41:19.319Z,6.33
2018-12-04T19:43:56.456Z,6.34
2018-12-04T19:46:29.634Z,6.02
2018-12-04T19:49:06.076Z,6.00
2018-12-04T19:51:36.756Z,5.96
2018-12-04T19:54:13.971Z,5.94
2018-12-04T19:56:46.534Z,5.82
2018-12-04T19:59:18.708Z,5.67
2018-12-04T20:01:51.471Z,5.65
2018-12-04T20:04:24.411Z,5.58
2018-12-04T20:06:57.288Z,5.51
2018-12-04T20:09:34.197Z,5.52
2018-12-04T20:12:07.204Z,5.63
2018-12-04T20:14:43.404Z,5.49
2018-12-04T20:17:14.314Z,5.41
2018-12-04T20:19:50.493Z,5.45
2018-12-04T20:22:23.363Z,5.29
2018-12-04T20:24:56.447Z,5.23
2018-12-04T20:27:29.315Z,5.28
2018-12-04T20:30:06.812Z,5.44
2018-12-04T20:32:39.433Z,5.35
2018-12-04T20:35:12.201Z,5.34
2018-12-04T20:42:50.434Z,5.35
2018-12-04T20:45:27.236Z,5.32
2018-12-04T20:48:00.056Z,5.46
2018-12-04T20:50:37.010Z,5.41
2018-12-04T20:53:07.209Z,5.17
2018-12-04T20:55:39.426Z,5.20
2018-12-04T20:58:10.378Z,5.17
2018-12-04T21:00:46.482Z,5.17
2018-12-04T21:03:18.745Z,5.17
2018-12-04T21:05:51.705Z,5.14
2018-12-04T21:08:23.889Z,5.13
2018-12-04T21:10:56.819Z,5.15
2018-12-04T21:13:29.093Z,5.09
2018-12-04T21:16:01.119Z,5.11
2018-12-04T21:18:38.183Z,5.15
2018-12-04T21:21:14.294Z,5.11
2018-12-04T21:23:47.296Z,5.11
2018-12-04T21:26:23.572Z,5.17
2018-12-04T21:29:07.138Z,5.25
2018-12-04T21:31:49.814Z,5.42
2018-12-04T21:34:25.744Z,5.35
2018-12-04T21:37:04.138Z,5.44
2018-12-04T21:39:36.127Z,5.50
2018-12-04T21:42:14.381Z,5.65
2018-12-04T21:59:51.087Z,5.84
2018-12-04T22:02:23.282Z,6.16
2018-12-04T22:05:07.336Z,6.05
2018-12-04T22:07:40.796Z,5.82
2018-12-04T22:10:14.244Z,5.80
2018-12-04T22:12:51.381Z,5.71
2018-12-04T22:15:28.382Z,5.75
2018-12-04T22:18:04.945Z,5.75
2018-12-04T22:20:39.812Z,5.92
2018-12-04T22:23:12.812Z,5.94
2018-12-04T22:25:45.471Z,5.91
2018-12-04T22:28:27.186Z,5.90
2018-12-04T22:31:08.509Z,5.90
2018-12-04T22:33:41.833Z,5.71
2018-12-04T22:36:18.977Z,5.57
2018-12-04T22:38:56.380Z,5.69
2018-12-04T22:41:29.582Z,5.76
2018-12-04T22:44:02.179Z,5.84
2018-12-04T22:46:35.167Z,6.02
2018-12-04T22:49:07.972Z,6.10
2018-12-04T22:51:40.895Z,6.08
2018-12-04T22:54:18.824Z,6.00
2018-12-04T22:56:51.681Z,6.06
2018-12-04T22:59:24.406Z,6.07
2018-12-04T23:09:34.171Z,6.22
2018-12-04T23:12:06.672Z,6.19
2018-12-04T23:14:42.909Z,6.09
2018-12-04T23:17:19.149Z,6.18
2018-12-04T23:19:55.240Z,6.31
2018-12-04T23:22:28.199Z,6.32
2018-12-04T23:25:00.911Z,6.36
2018-12-04T23:27:33.176Z,6.41
2018-12-04T23:30:07.559Z,6.52
2018-12-04T23:32:38.140Z,6.52
2018-12-04T23:38:41.621Z,6.59
2018-12-04T23:41:17.644Z,6.61
2018-12-04T23:43:50.441Z,6.65
2018-12-04T23:46:23.459Z,6.66
2018-12-04T23:48:55.591Z,6.70
2018-12-04T23:51:31.870Z,6.68
2018-12-04T23:54:04.797Z,6.68
2018-12-04T23:56:41.632Z,6.74
2018-12-04T23:59:14.540Z,6.70
